Time;durP1;ratioP1;P1;durP2;ratioP2;P2;SDS_P1;SDS_P2;PMS_P1;PMS_P2;Temp;Humidity;BMP_temperature;BMP_pressure;BME280_temperature;BME280_humidity;BME280_pressure;Samples;Min_cycle;Max_cycle;Signal;HPM_P1;HPM_P2
2022/12/07 00:02:12;;;;;;;;;51.25;42.00;;;;;5.37;72.45;101413.88;6149693;23;45577;-77
2022/12/07 00:04:37;;;;;;;;;46.50;34.25;;;;;5.39;72.51;101417.28;6148644;23;47518;-80
2022/12/07 00:07:04;;;;;;;;;37.75;32.75;;;;;5.38;72.72;101409.53;6122712;23;47176;-78
2022/12/07 00:09:30;;;;;;;;;42.75;40.50;;;;;5.36;72.70;101401.78;6150158;23;45869;-77
2022/12/07 00:11:55;;;;;;;;;36.25;30.50;;;;;5.35;72.75;101409.63;6149922;23;45407;-77
2022/12/07 00:14:21;;;;;;;;;45.00;37.50;;;;;5.31;73.04;101408.91;6151008;23;46158;-80
2022/12/07 00:16:51;;;;;;;;;59.25;45.50;;;;;5.27;73.30;101407.34;6149657;23;46005;-77
2022/12/07 00:19:16;;;;;;;;;58.75;46.00;;;;;5.24;72.87;101404.84;6149646;23;45452;-78
2022/12/07 00:21:42;;;;;;;;;64.50;47.50;;;;;5.20;73.22;101400.66;6149961;23;45563;-77
2022/12/07 00:24:09;;;;;;;;;55.75;42.50;;;;;5.14;72.92;101387.03;6122273;23;47360;-78
2022/12/07 00:26:37;;;;;;;;;64.75;45.50;;;;;5.19;73.44;101398.97;6149897;23;46537;-78
2022/12/07 00:29:05;;;;;;;;;60.25;45.50;;;;;5.11;73.06;101394.97;6149790;23;45598;-77
2022/12/07 00:31:35;;;;;;;;;54.00;45.00;;;;;5.12;73.04;101399.25;6149441;23;45722;-79
2022/12/07 00:34:01;;;;;;;;;48.75;42.75;;;;;5.12;73.42;101386.28;6148205;23;46213;-77
2022/12/07 00:42:33;;;;;;;;;35.50;30.75;;;;;4.99;73.91;101383.25;6149172;23;45545;-76
2022/12/07 00:44:58;;;;;;;;;43.00;37.00;;;;;4.97;73.79;101379.84;6148555;23;45678;-78
2022/12/07 00:47:25;;;;;;;;;47.75;36.00;;;;;5.06;73.87;101395.13;6148615;23;46717;-79
2022/12/07 00:49:53;;;;;;;;;39.50;35.75;;;;;5.10;73.52;101395.84;6148713;23;45640;-77
2022/12/07 00:52:19;;;;;;;;;39.25;35.25;;;;;5.11;73.54;101387.16;6148424;23;45636;-76
2022/12/07 00:54:44;;;;;;;;;41.75;27.25;;;;;5.12;73.45;101387.13;6149465;23;46291;-78
2022/12/07 00:57:09;;;;;;;;;39.50;32.75;;;;;5.12;73.64;101389.72;6148578;23;47036;-78
2022/12/07 00:59:35;;;;;;;;;44.00;36.25;;;;;5.17;73.80;101393.00;6149454;23;45527;-77
2022/12/07 01:02:00;;;;;;;;;37.25;32.75;;;;;5.16;73.73;101390.44;6122393;23;45961;-78
2022/12/07 01:04:26;;;;;;;;;44.00;37.25;;;;;5.17;73.41;101379.16;6148726;23;47412;-77
2022/12/07 01:10:14;;;;;;;;;33.50;28.00;;;;;5.21;73.64;101375.53;6149205;23;45805;-78
2022/12/07 01:12:41;;;;;;;;;41.50;39.50;;;;;5.26;73.59;101387.44;6149134;23;45471;-78
2022/12/07 01:15:07;;;;;;;;;42.50;34.50;;;;;5.23;73.61;101378.94;6148260;23;48089;-77
2022/12/07 01:17:32;;;;;;;;;40.25;35.50;;;;;5.25;73.22;101382.31;6149243;23;46031;-78
2022/12/07 01:19:58;;;;;;;;;47.75;38.25;;;;;5.24;73.71;101385.81;6149460;23;45364;-78
2022/12/07 01:25:45;;;;;;;;;40.50;35.75;;;;;5.07;73.56;101368.25;6148964;23;45566;-78
2022/12/07 01:28:10;;;;;;;;;49.00;41.75;;;;;5.13;73.54;101373.22;6148182;23;45526;-78
2022/12/07 01:30:36;;;;;;;;;41.75;37.50;;;;;5.13;73.59;101381.00;6148130;23;45597;-78
2022/12/07 01:33:01;;;;;;;;;39.00;34.25;;;;;5.10;73.32;101382.88;6147648;23;45705;-77
2022/12/07 01:35:26;;;;;;;;;43.75;37.00;;;;;5.06;73.48;101376.94;6148988;23;45502;-78
2022/12/07 01:41:15;;;;;;;;;42.25;37.75;;;;;4.96;73.38;101371.25;6148680;23;45790;-79
2022/12/07 01:44:14;;;;;;;;;43.25;38.25;;;;;4.91;73.95;101372.31;6148592;23;45651;-79
2022/12/07 01:46:41;;;;;;;;;45.50;36.00;;;;;4.87;73.86;101368.09;6149211;23;45572;-77
2022/12/07 01:49:14;;;;;;;;;50.50;38.00;;;;;4.82;73.70;101376.06;6150326;23;46053;-78
2022/12/07 01:51:42;;;;;;;;;46.00;36.50;;;;;4.77;73.63;101372.78;6149865;23;45607;-79
2022/12/07 01:57:33;;;;;;;;;39.25;36.25;;;;;4.57;73.51;101372.63;6149870;23;45986;-78
2022/12/07 02:00:00;;;;;;;;;47.50;41.00;;;;;4.55;74.21;101377.00;6150100;23;46246;-77
2022/12/07 02:02:36;;;;;;;;;46.00;38.75;;;;;4.46;73.82;101364.34;6148868;23;45593;-78
2022/12/07 02:05:05;;;;;;;;;36.00;35.00;;;;;4.47;74.00;101369.50;6149954;23;45716;-77
2022/12/07 02:07:32;;;;;;;;;42.00;30.25;;;;;4.45;73.76;101366.09;6149200;23;47553;-77
2022/12/07 02:13:23;;;;;;;;;32.25;27.00;;;;;4.31;73.94;101349.31;6149224;23;45555;-78
2022/12/07 02:16:13;;;;;;;;;43.50;34.25;;;;;4.33;74.05;101361.31;6149701;23;45435;-77
2022/12/07 02:18:54;;;;;;;;;38.25;31.75;;;;;4.33;74.28;101381.22;6149864;23;46432;-78
2022/12/07 02:21:51;;;;;;;;;35.00;29.75;;;;;4.18;74.23;101354.03;6149750;23;45973;-79
2022/12/07 02:25:08;;;;;;;;;34.50;27.00;;;;;4.19;74.14;101373.91;6149559;23;45458;-79
2022/12/07 02:27:51;;;;;;;;;29.50;28.75;;;;;4.12;74.63;101365.47;6030278;23;45557;-78
2022/12/07 02:30:22;;;;;;;;;40.50;32.50;;;;;4.07;74.69;101364.75;6030379;23;46136;-78
2022/12/07 02:33:03;;;;;;;;;24.75;18.50;;;;;4.06;74.44;101359.63;6029324;23;45630;-78
2022/12/07 02:35:46;;;;;;;;;34.00;26.75;;;;;4.04;74.36;101356.25;6030374;23;45442;-78
2022/12/07 02:41:42;;;;;;;;;31.25;26.00;;;;;4.06;74.78;101360.47;6029518;23;46031;-78
2022/12/07 02:44:13;;;;;;;;;34.25;27.00;;;;;3.99;74.68;101340.00;6029874;23;45551;-77
2022/12/07 02:46:43;;;;;;;;;32.50;28.75;;;;;4.04;74.77;101351.91;6030092;23;45448;-78
2022/12/07 02:49:10;;;;;;;;;42.75;30.25;;;;;4.01;75.18;101336.44;6029483;23;45582;-78
2022/12/07 02:51:40;;;;;;;;;30.00;27.00;;;;;4.10;74.78;101356.88;6030039;23;45839;-75
2022/12/07 02:58:02;;;;;;;;;35.50;28.75;;;;;4.13;75.10;101356.78;6029635;23;46011;-78
2022/12/07 03:00:27;;;;;;;;;37.25;26.25;;;;;4.13;75.00;101349.00;5972931;23;45965;-78
2022/12/07 03:03:13;;;;;;;;;39.00;31.50;;;;;4.13;74.98;101351.59;6014248;23;45776;-77
2022/12/07 03:06:01;;;;;;;;;29.25;28.25;;;;;4.20;75.18;101357.44;6087652;23;45933;-78
2022/12/07 03:08:38;;;;;;;;;30.25;26.00;;;;;4.25;74.88;101355.53;6062578;23;46048;-77
2022/12/07 03:11:11;;;;;;;;;32.00;29.00;;;;;4.17;75.34;101336.78;6087778;23;45728;-78
2022/12/07 03:13:49;;;;;;;;;36.25;30.75;;;;;4.28;74.86;101344.22;6087343;23;45565;-77
2022/12/07 03:16:16;;;;;;;;;30.50;26.50;;;;;4.29;74.83;101345.91;6087297;23;47272;-77
2022/12/07 03:18:51;;;;;;;;;33.25;26.50;;;;;4.30;74.64;101342.41;6087537;23;45835;-79
2022/12/07 03:21:23;;;;;;;;;30.75;24.50;;;;;4.30;75.06;101334.63;6088191;23;45880;-76
2022/12/07 03:27:47;;;;;;;;;36.50;30.75;;;;;4.32;74.76;101335.44;6087275;23;45603;-78
2022/12/07 03:30:20;;;;;;;;;34.00;26.25;;;;;4.31;74.84;101325.97;6087938;23;45729;-78
2022/12/07 03:32:45;;;;;;;;;23.25;16.00;;;;;4.29;75.00;101325.16;6087208;23;45840;-77
2022/12/07 03:35:21;;;;;;;;;34.00;28.00;;;;;4.28;75.06;101321.72;6087712;23;46137;-77
2022/12/07 03:37:53;;;;;;;;;30.25;25.75;;;;;4.28;74.55;101323.47;6128629;23;46080;-78
2022/12/07 03:43:41;;;;;;;;;31.75;29.75;;;;;4.27;74.48;101319.16;6148994;23;45612;-78
2022/12/07 03:46:15;;;;;;;;;35.75;26.00;;;;;4.28;74.71;101326.91;6149515;23;46034;-78
2022/12/07 03:48:51;;;;;;;;;35.25;25.75;;;;;4.29;74.52;101325.16;6149290;23;46132;-77
2022/12/07 03:51:32;;;;;;;;;18.00;17.25;;;;;4.14;74.95;101279.84;6122378;23;45836;-76
2022/12/07 03:54:10;;;;;;;;;29.25;26.00;;;;;4.25;75.02;101303.69;6149585;23;45443;-77
2022/12/07 03:56:36;;;;;;;;;32.75;25.25;;;;;4.30;74.83;101306.13;6149171;23;45702;-78
2022/12/07 03:59:02;;;;;;;;;20.50;19.25;;;;;4.31;74.74;101308.66;6149419;23;46202;-77
2022/12/07 04:01:27;;;;;;;;;29.00;20.75;;;;;4.21;74.95;101297.72;6149155;23;45963;-75
2022/12/07 04:03:52;;;;;;;;;29.75;25.75;;;;;4.33;74.69;101312.03;6149698;23;45541;-77
2022/12/07 04:06:18;;;;;;;;;36.00;27.50;;;;;4.31;74.74;101315.59;6149930;23;45621;-80
2022/12/07 04:08:43;;;;;;;;;28.25;24.25;;;;;4.36;74.80;101324.91;6150347;23;46165;-78
2022/12/07 04:14:30;;;;;;;;;32.00;25.75;;;;;4.26;74.75;101300.19;6148883;23;45667;-78
2022/12/07 04:16:58;;;;;;;;;25.00;22.25;;;;;4.40;75.23;101310.09;6149246;23;46244;-76
2022/12/07 04:19:29;;;;;;;;;29.25;24.50;;;;;4.45;75.08;101315.97;6149186;23;46439;-76
2022/12/07 04:21:55;;;;;;;;;22.00;19.00;;;;;4.49;74.83;101313.19;6149140;23;45577;-78
2022/12/07 04:24:21;;;;;;;;;24.75;21.50;;;;;4.53;74.85;101312.22;6149295;23;45484;-77
2022/12/07 04:26:47;;;;;;;;;21.50;17.00;;;;;4.53;74.66;101301.84;6149212;23;45501;-78
2022/12/07 04:29:13;;;;;;;;;22.75;20.50;;;;;4.59;74.81;101309.38;6149288;23;45692;-79
2022/12/07 04:31:39;;;;;;;;;25.50;20.75;;;;;4.49;74.90;101297.63;6148493;23;45547;-77
2022/12/07 04:34:06;;;;;;;;;28.75;23.50;;;;;4.61;74.84;101317.13;6149256;23;45591;-78
2022/12/07 04:36:32;;;;;;;;;34.25;26.25;;;;;4.61;74.69;101306.75;6149328;23;46399;-77
2022/12/07 04:38:58;;;;;;;;;27.75;20.00;;;;;4.68;74.43;101312.56;6149317;23;45957;-79
2022/12/07 04:44:45;;;;;;;;;27.00;20.00;;;;;4.54;74.48;101306.09;6149322;23;45475;-77
2022/12/07 04:47:10;;;;;;;;;23.75;19.50;;;;;4.69;74.21;101320.31;6148749;23;45598;-78
2022/12/07 04:49:36;;;;;;;;;23.75;21.00;;;;;4.65;74.43;101319.53;6149163;23;46106;-77
2022/12/07 04:52:01;;;;;;;;;22.00;17.50;;;;;4.67;74.23;101306.53;6149014;23;45685;-76
2022/12/07 04:54:27;;;;;;;;;26.00;18.00;;;;;4.68;74.13;101317.75;6149322;23;45414;-78
2022/12/07 05:00:14;;;;;;;;;28.00;21.75;;;;;4.57;73.97;101310.34;6148963;23;45978;-77
2022/12/07 05:02:39;;;;;;;;;33.00;24.75;;;;;4.60;73.94;101312.81;6148782;23;45585;-77
2022/12/07 05:05:05;;;;;;;;;17.75;14.25;;;;;4.61;73.94;101311.94;6149114;23;45466;-79
2022/12/07 05:07:30;;;;;;;;;19.00;14.00;;;;;4.50;73.84;101295.88;6148894;23;45541;-78
2022/12/07 05:09:55;;;;;;;;;24.00;21.00;;;;;4.49;73.75;101302.81;6149073;23;45923;-77
2022/12/07 05:12:21;;;;;;;;;29.50;23.25;;;;;4.50;73.86;101303.66;6148926;23;45581;-78
2022/12/07 05:14:46;;;;;;;;;25.00;20.00;;;;;4.48;74.31;101302.91;6149272;23;45516;-78
2022/12/07 05:17:12;;;;;;;;;27.00;24.50;;;;;4.47;74.21;101303.78;6149168;23;46527;-78
2022/12/07 05:19:37;;;;;;;;;23.00;21.00;;;;;4.34;73.88;101281.75;6148412;23;45589;-78
2022/12/07 05:22:02;;;;;;;;;21.00;17.75;;;;;4.49;74.26;101313.19;6148751;23;45489;-78
2022/12/07 05:24:28;;;;;;;;;28.00;22.00;;;;;4.49;73.95;101307.16;6149254;23;45486;-77
2022/12/07 05:30:15;;;;;;;;;22.75;19.25;;;;;4.52;73.74;101322.63;6149277;23;45991;-79
2022/12/07 05:32:40;;;;;;;;;21.50;16.50;;;;;4.34;73.74;101290.38;6149260;23;45591;-78
2022/12/07 05:35:06;;;;;;;;;22.75;21.00;;;;;4.53;74.01;101322.59;6149741;23;45704;-78
2022/12/07 05:37:31;;;;;;;;;36.00;27.50;;;;;4.50;73.55;101314.06;6149205;23;45511;-78
2022/12/07 05:39:57;;;;;;;;;26.50;21.75;;;;;4.46;73.39;101307.28;6149125;23;45731;-79
2022/12/07 05:45:44;;;;;;;;;10.25;8.25;;;;;4.56;73.39;101319.88;6149514;23;45503;-78
2022/12/07 05:48:09;;;;;;;;;25.50;23.00;;;;;4.58;73.82;101314.66;6121729;23;47606;-78
2022/12/07 05:50:34;;;;;;;;;29.25;24.25;;;;;4.60;73.58;101320.59;6148898;23;45510;-78
2022/12/07 05:53:00;;;;;;;;;21.50;13.50;;;;;4.56;73.83;101309.50;6148591;23;45452;-78
2022/12/07 05:55:25;;;;;;;;;28.00;24.00;;;;;4.61;73.20;101307.59;6149026;23;45463;-79
2022/12/07 06:00:34;;;;;;;;;25.00;22.25;;;;;4.68;73.75;101313.41;6148954;23;46038;-79
2022/12/07 06:03:00;;;;;;;;;29.00;23.25;;;;;4.70;73.38;101314.19;6148279;23;45599;-79
2022/12/07 06:05:25;;;;;;;;;28.50;21.75;;;;;4.74;73.71;101317.53;6148988;23;45397;-79
2022/12/07 06:07:50;;;;;;;;;22.50;19.75;;;;;4.73;73.66;101310.66;6148626;23;46330;-77
2022/12/07 06:10:16;;;;;;;;;27.75;22.00;;;;;4.69;73.23;101306.47;6148987;23;46018;-78
2022/12/07 06:16:03;;;;;;;;;24.00;21.00;;;;;4.74;73.31;101315.81;6148459;23;45388;-80
2022/12/07 06:18:28;;;;;;;;;25.00;23.75;;;;;4.63;73.58;101305.81;6148611;23;45518;-77
2022/12/07 06:20:54;;;;;;;;;28.00;23.25;;;;;4.72;73.60;101315.00;6148022;23;45575;-78
2022/12/07 06:23:19;;;;;;;;;25.00;21.00;;;;;4.67;73.73;101301.34;6147716;23;45459;-78
2022/12/07 06:25:47;;;;;;;;;25.00;20.50;;;;;4.68;73.67;101297.84;6149569;23;45522;-78
2022/12/07 06:31:35;;;;;;;;;27.00;22.75;;;;;4.67;73.83;101310.88;6149804;23;45789;-78
2022/12/07 06:34:04;;;;;;;;;16.50;14.50;;;;;4.62;73.78;101311.88;6150238;23;45823;-78
2022/12/07 06:36:30;;;;;;;;;25.00;22.00;;;;;4.56;73.77;101306.06;6150099;23;45508;-77
2022/12/07 06:38:56;;;;;;;;;25.25;18.00;;;;;4.63;73.44;101307.53;6150229;23;45592;-76
2022/12/07 06:41:21;;;;;;;;;20.75;18.75;;;;;4.67;73.46;101319.50;6150103;23;45612;-77
2022/12/07 06:43:47;;;;;;;;;23.25;22.25;;;;;4.64;73.75;101310.06;6151156;23;45667;-76
2022/12/07 06:46:14;;;;;;;;;24.00;20.25;;;;;4.69;73.46;101322.06;6151358;23;45924;-74
2022/12/07 06:48:39;;;;;;;;;18.75;14.75;;;;;4.69;73.77;101320.31;6149730;23;46425;-77
2022/12/07 06:51:04;;;;;;;;;21.25;18.75;;;;;4.62;73.74;101298.06;6149000;23;46894;-76
2022/12/07 06:53:30;;;;;;;;;22.25;20.00;;;;;4.58;73.64;101289.56;6149420;23;45627;-77
2022/12/07 06:55:55;;;;;;;;;26.50;24.50;;;;;4.78;73.30;101322.56;6150022;23;45712;-77
2022/12/07 07:01:42;;;;;;;;;29.50;26.25;;;;;4.83;73.37;101322.41;6151171;23;46033;-74
2022/12/07 07:04:07;;;;;;;;;24.25;21.75;;;;;4.83;73.63;101328.44;6151062;23;45349;-75
2022/12/07 07:06:33;;;;;;;;;21.25;18.50;;;;;4.85;73.27;101324.06;6150353;23;45724;-76
2022/12/07 07:08:58;;;;;;;;;23.75;20.75;;;;;4.85;73.33;101321.44;6149237;23;47270;-77
2022/12/07 07:14:45;;;;;;;;;24.00;21.00;;;;;4.71;73.86;101295.13;6149722;23;45787;-78
2022/12/07 07:17:11;;;;;;;;;24.50;18.25;;;;;4.83;73.44;101322.41;6150079;23;45513;-76
2022/12/07 07:19:37;;;;;;;;;27.50;21.00;;;;;4.85;73.69;101321.44;6149605;23;46029;-76
2022/12/07 07:22:02;;;;;;;;;25.50;21.50;;;;;4.89;73.52;101320.44;6148891;23;47002;-76
2022/12/07 07:24:28;;;;;;;;;23.75;19.50;;;;;4.88;73.58;101316.13;6150048;23;45561;-74
2022/12/07 07:30:15;;;;;;;;;27.00;22.25;;;;;4.87;73.37;101311.84;6149640;23;45983;-74
2022/12/07 07:32:40;;;;;;;;;23.50;23.00;;;;;4.82;73.62;101305.97;6145954;23;48143;-76
2022/12/07 07:35:06;;;;;;;;;24.25;20.25;;;;;4.88;73.64;101318.72;6149081;23;45476;-75
2022/12/07 07:37:31;;;;;;;;;29.50;22.50;;;;;4.91;73.62;101322.97;6149776;23;45474;-77
2022/12/07 07:39:56;;;;;;;;;30.50;22.00;;;;;4.91;73.51;101312.59;6146915;23;46547;-74
2022/12/07 07:45:44;;;;;;;;;27.25;24.00;;;;;4.94;73.45;101315.06;6149500;23;45590;-78
2022/12/07 07:48:09;;;;;;;;;19.25;16.75;;;;;5.00;73.37;101323.50;6149829;23;45566;-78
2022/12/07 07:50:34;;;;;;;;;29.75;24.75;;;;;4.96;73.22;101315.88;6149766;23;46575;-78
2022/12/07 07:53:00;;;;;;;;;29.00;22.00;;;;;5.06;73.66;101317.22;6149191;23;46118;-79
2022/12/07 07:55:25;;;;;;;;;25.00;21.00;;;;;5.08;73.27;101318.84;6149722;23;45507;-78
2022/12/07 08:01:13;;;;;;;;;74.75;59.00;;;;;5.17;73.46;101329.81;6148605;23;45714;-79
2022/12/07 08:03:39;;;;;;;;;27.25;21.75;;;;;5.11;73.21;101315.31;6148646;23;46556;-78
2022/12/07 08:06:05;;;;;;;;;30.25;24.25;;;;;5.13;73.06;101305.69;6149727;23;45799;-79
2022/12/07 08:08:30;;;;;;;;;22.50;21.25;;;;;5.26;72.99;101322.50;6149604;23;45574;-75
2022/12/07 08:10:56;;;;;;;;;31.50;26.25;;;;;5.29;73.23;101327.59;6149853;23;45570;-79
2022/12/07 08:16:46;;;;;;;;;26.75;24.25;;;;;5.34;72.79;101320.50;6149276;23;45625;-78
2022/12/07 08:19:12;;;;;;;;;23.00;20.50;;;;;5.35;73.08;101326.50;6150063;23;45483;-79
2022/12/07 08:21:38;;;;;;;;;25.75;20.25;;;;;5.32;72.94;101321.44;6149465;23;45544;-77
2022/12/07 08:24:04;;;;;;;;;21.25;18.25;;;;;5.35;72.70;101335.16;6148693;23;45954;-76
2022/12/07 08:26:30;;;;;;;;;21.25;18.25;;;;;5.37;73.10;101337.69;6149680;23;45531;-77
2022/12/07 08:32:17;;;;;;;;;25.50;21.50;;;;;5.43;73.09;101335.72;6147192;23;45991;-80
2022/12/07 08:34:42;;;;;;;;;25.75;20.00;;;;;5.45;72.76;101338.25;6149187;23;46243;-78
2022/12/07 08:37:08;;;;;;;;;19.00;17.75;;;;;5.49;73.04;101340.69;6149404;23;45618;-80
2022/12/07 08:39:33;;;;;;;;;25.75;23.00;;;;;5.50;72.44;101341.53;6149547;23;45473;-79
2022/12/07 08:41:58;;;;;;;;;24.50;20.00;;;;;5.51;72.24;101352.78;6148923;23;46204;-78
2022/12/07 08:48:08;;;;;;;;;27.75;21.00;;;;;5.46;72.43;101345.13;6149802;23;45659;-79
2022/12/07 08:50:38;;;;;;;;;8.50;6.25;;;;;5.39;72.37;101341.09;6150754;23;45726;-79
2022/12/07 08:53:05;;;;;;;;;27.25;25.50;;;;;5.42;72.39;101336.63;6149093;23;45730;-78
2022/12/07 08:55:35;;;;;;;;;22.75;21.75;;;;;5.25;72.49;101299.19;6148998;23;46008;-78
2022/12/07 08:58:02;;;;;;;;;22.00;16.25;;;;;5.48;72.41;101325.16;6149837;23;45577;-78
2022/12/07 09:00:27;;;;;;;;;28.75;23.75;;;;;5.51;72.75;101327.59;6149825;23;45593;-76
2022/12/07 09:02:53;;;;;;;;;25.50;22.00;;;;;5.48;72.10;101327.75;6149086;23;45778;-78
2022/12/07 09:05:19;;;;;;;;;26.50;20.00;;;;;5.60;72.16;101339.41;6149102;23;46050;-76
2022/12/07 09:07:49;;;;;;;;;20.25;19.00;;;;;5.64;72.18;101346.19;6149331;23;45686;-78
2022/12/07 09:10:20;;;;;;;;;25.25;21.25;;;;;5.64;72.33;101339.25;6122805;23;45660;-78
2022/12/07 09:12:45;;;;;;;;;19.25;18.50;;;;;5.66;72.46;101347.00;6148953;23;46712;-78
2022/12/07 09:15:11;;;;;;;;;19.00;17.50;;;;;5.69;72.23;101339.91;6148928;23;45977;-77
2022/12/07 09:17:37;;;;;;;;;24.50;20.25;;;;;5.72;72.50;101349.34;6148966;23;45808;-78
2022/12/07 09:20:04;;;;;;;;;25.75;18.75;;;;;5.73;71.90;101351.88;6149092;23;45400;-78
2022/12/07 09:22:30;;;;;;;;;22.00;21.25;;;;;5.74;72.03;101339.72;6148647;23;46379;-78
2022/12/07 09:24:57;;;;;;;;;21.00;17.50;;;;;5.76;71.89;101350.91;6148874;23;46266;-78
2022/12/07 09:27:23;;;;;;;;;22.00;19.00;;;;;5.78;71.78;101355.13;6148780;23;45790;-77
2022/12/07 09:33:10;;;;;;;;;22.00;18.75;;;;;5.80;71.71;101361.13;6143281;23;45904;-78
2022/12/07 09:35:35;;;;;;;;;21.50;19.00;;;;;5.84;72.06;101352.28;6148808;23;45523;-77
2022/12/07 09:38:01;;;;;;;;;22.50;19.75;;;;;5.81;71.85;101341.19;6148846;23;46153;-79
2022/12/07 09:40:27;;;;;;;;;22.25;19.25;;;;;5.84;71.62;101349.69;6149020;23;45726;-78
2022/12/07 09:42:55;;;;;;;;;24.25;19.75;;;;;5.74;71.96;101322.38;6148431;23;46407;-77
2022/12/07 09:48:43;;;;;;;;;20.25;16.50;;;;;5.93;71.51;101343.31;6148382;23;45499;-76
2022/12/07 09:51:17;;;;;;;;;19.25;19.25;;;;;5.98;71.84;101341.38;6148787;23;45500;-77
2022/12/07 09:53:44;;;;;;;;;21.50;19.25;;;;;5.93;71.47;101332.94;6148669;23;45581;-77
2022/12/07 09:56:20;;;;;;;;;21.50;20.00;;;;;6.05;71.72;101336.75;6148777;23;46036;-78
2022/12/07 09:58:47;;;;;;;;;23.00;20.00;;;;;6.08;71.70;101334.06;6148067;23;45778;-77
2022/12/07 10:01:16;;;;;;;;;22.50;19.00;;;;;6.05;71.73;101327.22;6148835;23;45728;-79
2022/12/07 10:03:52;;;;;;;;;2.00;2.00;;;;;6.14;71.38;101333.81;6148900;23;45543;-76
2022/12/07 10:06:20;;;;;;;;;20.50;17.25;;;;;6.18;71.46;101322.34;6148748;23;46323;-78
2022/12/07 10:08:45;;;;;;;;;24.25;20.25;;;;;6.19;71.24;101324.06;6150115;23;45971;-77
2022/12/07 10:11:11;;;;;;;;;21.50;19.75;;;;;6.26;71.46;101322.91;6150271;23;45527;-78
2022/12/07 10:13:47;;;;;;;;;26.25;23.00;;;;;6.31;71.56;101323.56;6149856;23;46354;-78
2022/12/07 10:16:28;;;;;;;;;27.25;23.25;;;;;6.33;71.57;101319.09;6123183;23;47290;-77
2022/12/07 10:18:54;;;;;;;;;25.00;21.00;;;;;6.33;71.70;101326.91;6150101;23;45743;-77
2022/12/07 10:21:25;;;;;;;;;20.00;17.00;;;;;6.40;71.58;101330.13;6150205;23;45582;-79
2022/12/07 10:24:14;;;;;;;;;29.50;25.00;;;;;6.36;71.54;101308.59;6122564;23;48645;-76
2022/12/07 10:26:52;;;;;;;;;22.25;19.75;;;;;6.46;71.51;101325.50;6000682;23;46189;-78
2022/12/07 10:29:33;;;;;;;;;24.00;23.00;;;;;6.42;71.37;101307.47;6001138;23;45581;-79
2022/12/07 10:32:26;;;;;;;;;20.75;19.00;;;;;6.56;71.24;101312.94;6001316;23;45652;-78
2022/12/07 10:35:21;;;;;;;;;30.25;23.00;;;;;6.63;71.57;101311.75;6001269;23;45605;-77
2022/12/07 10:37:50;;;;;;;;;25.25;22.00;;;;;6.64;71.15;101298.66;6001314;23;46366;-76
2022/12/07 10:40:39;;;;;;;;;28.50;24.00;;;;;6.55;71.06;101278.25;6001232;23;45844;-79
2022/12/07 10:43:13;;;;;;;;;23.50;21.25;;;;;6.74;70.95;101307.78;6001759;23;45845;-80
2022/12/07 10:45:51;;;;;;;;;24.50;22.00;;;;;6.75;70.66;101298.19;6001599;23;47046;-76
2022/12/07 10:48:32;;;;;;;;;23.50;19.50;;;;;6.75;70.55;101296.44;6000983;23;46960;-78
2022/12/07 10:51:20;;;;;;;;;27.25;24.25;;;;;6.81;70.79;101290.09;6001108;23;45597;-78
2022/12/07 10:54:18;;;;;;;;;24.75;23.00;;;;;6.85;71.01;101273.47;6001810;23;45520;-79
2022/12/07 10:57:04;;;;;;;;;31.50;25.75;;;;;6.92;70.87;101274.84;6000747;23;46695;-77
2022/12/07 11:03:00;;;;;;;;;27.50;23.50;;;;;6.99;70.88;101254.59;6023190;23;45806;-79
2022/12/07 11:05:37;;;;;;;;;23.75;20.75;;;;;7.05;70.71;101247.34;6149251;23;45656;-78
2022/12/07 11:08:14;;;;;;;;;24.50;21.00;;;;;7.08;70.55;101256.75;6122622;23;45572;-80
2022/12/07 11:10:53;;;;;;;;;24.75;20.50;;;;;7.11;70.79;101257.47;6148733;23;46412;-77
2022/12/07 11:13:41;;;;;;;;;27.25;21.00;;;;;7.11;70.50;101249.66;6098179;23;45450;-78
2022/12/07 11:19:40;;;;;;;;;22.25;20.75;;;;;7.12;70.61;101246.16;6149226;23;45633;-77
2022/12/07 11:22:16;;;;;;;;;24.75;21.00;;;;;7.14;70.66;101235.63;6122197;23;48156;-78
2022/12/07 11:24:57;;;;;;;;;29.00;23.75;;;;;7.14;70.31;101233.03;6149983;23;45557;-77
2022/12/07 11:27:45;;;;;;;;;24.25;20.00;;;;;7.15;70.23;101237.31;6149808;23;45630;-78
2022/12/07 11:30:13;;;;;;;;;29.00;26.50;;;;;7.14;70.19;101233.88;6149509;23;45406;-77
2022/12/07 11:32:50;;;;;;;;;28.50;25.00;;;;;7.13;70.28;101224.34;6148636;23;46221;-77
2022/12/07 11:35:31;;;;;;;;;26.00;24.00;;;;;7.13;70.49;101211.34;6149865;23;45657;-78
2022/12/07 11:38:10;;;;;;;;;24.50;23.50;;;;;7.14;70.44;101210.41;6149755;23;45571;-78
2022/12/07 11:40:36;;;;;;;;;32.75;27.50;;;;;7.10;70.64;101201.06;6149473;23;46773;-77
2022/12/07 11:43:13;;;;;;;;;22.75;21.00;;;;;7.18;70.27;101211.13;6149312;23;45573;-78
2022/12/07 11:45:43;;;;;;;;;30.75;26.75;;;;;7.17;70.43;101204.25;6148943;23;45569;-78
2022/12/07 11:48:18;;;;;;;;;26.75;24.00;;;;;7.17;70.75;101209.44;6149821;23;45590;-76
2022/12/07 11:50:53;;;;;;;;;32.25;28.50;;;;;7.06;70.68;101180.44;6149342;23;45545;-78
2022/12/07 11:53:26;;;;;;;;;32.50;28.50;;;;;7.22;70.50;101199.66;6149484;23;46541;-77
2022/12/07 11:55:51;;;;;;;;;26.25;20.25;;;;;7.25;70.57;101199.50;6149626;23;45713;-78
2022/12/07 11:58:41;;;;;;;;;24.25;22.75;;;;;7.30;70.41;101199.25;6149936;23;45446;-78
2022/12/07 12:01:14;;;;;;;;;30.25;24.00;;;;;7.33;70.60;101191.31;6149206;23;46387;-78
2022/12/07 12:03:47;;;;;;;;;38.75;27.50;;;;;7.37;70.59;101182.44;6149133;23;45981;-78
2022/12/07 12:06:13;;;;;;;;;27.50;23.25;;;;;7.42;70.49;101185.66;6149562;23;45546;-77
2022/12/07 12:08:45;;;;;;;;;21.00;17.00;;;;;7.47;70.25;101181.91;6149406;23;45709;-77
2022/12/07 12:11:36;;;;;;;;;7.25;4.25;;;;;7.54;70.05;101182.44;6148881;23;46507;-79
2022/12/07 12:17:57;;;;;;;;;19.00;15.25;;;;;7.58;69.76;101168.34;6148704;23;45620;-79
2022/12/07 12:20:28;;;;;;;;;21.25;16.25;;;;;7.63;69.81;101175.91;6149268;23;45553;-77
2022/12/07 12:22:58;;;;;;;;;24.00;17.25;;;;;7.66;69.49;101174.03;6149001;23;46969;-78
2022/12/07 12:25:28;;;;;;;;;17.50;15.25;;;;;7.68;69.45;101172.16;6149239;23;46097;-77
2022/12/07 12:27:57;;;;;;;;;24.00;19.25;;;;;7.73;69.34;101169.31;6149197;23;45791;-77
2022/12/07 12:33:56;;;;;;;;;15.50;15.25;;;;;7.78;69.05;101170.78;6146597;23;45912;-79
2022/12/07 12:36:42;;;;;;;;;14.50;14.50;;;;;7.80;69.26;101161.13;6148915;23;45647;-77
2022/12/07 12:39:16;;;;;;;;;20.25;17.00;;;;;7.87;69.11;101165.13;6122415;23;45843;-76
2022/12/07 12:42:05;;;;;;;;;25.50;17.75;;;;;7.91;69.15;101166.63;6149584;23;45706;-77
2022/12/07 12:44:31;;;;;;;;;11.75;8.75;;;;;7.94;68.91;101157.78;6148821;23;46350;-76
2022/12/07 12:50:20;;;;;;;;;25.25;21.00;;;;;7.96;68.85;101148.97;6148556;23;45854;-77
2022/12/07 12:52:51;;;;;;;;;27.00;22.75;;;;;7.95;68.86;101146.44;6147757;23;45760;-76
2022/12/07 12:55:21;;;;;;;;;23.25;20.75;;;;;7.98;68.61;101149.75;6148564;23;46679;-76
2022/12/07 12:58:13;;;;;;;;;24.25;20.25;;;;;7.99;68.88;101153.19;6147516;23;46201;-76
2022/12/07 13:00:39;;;;;;;;;35.50;27.00;;;;;8.02;68.66;101143.44;6148928;23;45585;-76
2022/12/07 13:03:04;;;;;;;;;27.00;21.25;;;;;8.02;68.77;101134.78;6148538;23;45582;-75
2022/12/07 13:05:31;;;;;;;;;28.75;24.50;;;;;8.00;68.67;101137.47;6148571;23;45870;-73
2022/12/07 13:08:02;;;;;;;;;23.25;21.75;;;;;8.02;68.54;101133.03;6148263;23;46165;-74
2022/12/07 13:10:31;;;;;;;;;32.25;25.50;;;;;8.05;68.37;101132.00;6147606;23;45507;-76
2022/12/07 13:13:14;;;;;;;;;23.50;20.25;;;;;8.06;68.44;101133.69;6144941;23;45734;-74
2022/12/07 13:15:53;;;;;;;;;25.75;22.00;;;;;7.98;68.27;101120.22;6147139;23;47233;-76
2022/12/07 13:18:28;;;;;;;;;24.25;22.25;;;;;8.05;68.53;101129.38;6147490;23;46144;-75
2022/12/07 13:21:25;;;;;;;;;29.25;25.00;;;;;8.01;68.21;101120.88;6147035;23;45814;-76
2022/12/07 13:24:00;;;;;;;;;32.25;25.25;;;;;7.93;68.23;101107.41;6147812;23;45592;-77
2022/12/07 13:26:34;;;;;;;;;34.50;26.00;;;;;8.02;68.09;101119.97;6148122;23;46694;-75